Time;durP1;ratioP1;P1;durP2;ratioP2;P2;SDS_P1;SDS_P2;PMS_P1;PMS_P2;Temp;Humidity;BMP_temperature;BMP_pressure;BME280_temperature;BME280_humidity;BME280_pressure;Samples;Min_cycle;Max_cycle;Signal;HPM_P1;HPM_P2
2023/05/29 00:01:45;;;;;;;13.77;3.35;;;11.40;99.90;;;;;;5115492;27;20576;-57
2023/05/29 00:04:11;;;;;;;19.70;3.63;;;11.40;99.90;;;;;;5133820;27;20405;-58
2023/05/29 00:06:38;;;;;;;13.27;2.20;;;11.30;99.90;;;;;;5133792;27;20098;-60
2023/05/29 00:09:04;;;;;;;22.42;2.85;;;11.20;99.90;;;;;;5133697;27;20089;-59
2023/05/29 00:11:29;;;;;;;16.42;2.40;;;11.10;99.90;;;;;;5133377;27;20035;-58
2023/05/29 00:13:56;;;;;;;13.30;2.95;;;11.00;99.90;;;;;;5133451;27;20038;-59
2023/05/29 00:16:23;;;;;;;14.68;3.25;;;11.00;99.90;;;;;;5133364;27;20043;-57
2023/05/29 00:18:49;;;;;;;15.52;3.17;;;11.00;99.90;;;;;;5133139;27;20065;-59
2023/05/29 00:21:15;;;;;;;16.42;3.25;;;10.90;99.90;;;;;;5133453;27;20055;-57
2023/05/29 00:23:41;;;;;;;14.77;2.30;;;10.90;99.90;;;;;;5133270;27;20418;-59
2023/05/29 00:26:07;;;;;;;17.33;2.78;;;10.80;99.90;;;;;;5114686;27;20118;-59
2023/05/29 00:28:34;;;;;;;15.82;3.17;;;10.80;99.90;;;;;;5133205;27;20566;-59
2023/05/29 00:31:00;;;;;;;14.40;2.50;;;10.80;99.90;;;;;;5133405;27;20050;-58
2023/05/29 00:33:26;;;;;;;12.75;2.20;;;10.80;99.90;;;;;;5133316;27;20027;-59
2023/05/29 00:35:52;;;;;;;19.40;2.60;;;10.80;99.90;;;;;;5132854;27;20470;-57
2023/05/29 00:38:17;;;;;;;17.65;2.58;;;10.80;99.90;;;;;;5133161;27;20038;-59
2023/05/29 00:40:43;;;;;;;16.95;2.55;;;10.80;99.90;;;;;;5114415;27;20043;-58
2023/05/29 00:43:09;;;;;;;14.48;2.47;;;10.70;99.90;;;;;;5132622;27;20035;-59
2023/05/29 00:45:36;;;;;;;15.98;2.72;;;10.70;99.90;;;;;;5133090;27;20039;-58
2023/05/29 00:48:05;;;;;;;15.20;2.50;;;10.70;99.90;;;;;;5132010;27;20051;-59
2023/05/29 00:50:32;;;;;;;17.40;2.97;;;10.70;99.90;;;;;;5132781;27;20043;-60
2023/05/29 00:53:01;;;;;;;14.32;2.35;;;10.60;99.90;;;;;;5132788;27;20047;-58
2023/05/29 00:55:28;;;;;;;21.60;3.00;;;10.60;99.90;;;;;;5130350;27;20351;-58
2023/05/29 00:57:54;;;;;;;22.40;2.65;;;10.60;99.90;;;;;;5113882;27;20115;-58
2023/05/29 01:00:20;;;;;;;15.10;2.42;;;10.60;99.90;;;;;;5132825;27;20138;-58
2023/05/29 01:02:47;;;;;;;14.35;2.35;;;10.60;99.90;;;;;;5132836;27;20431;-58
2023/05/29 01:05:14;;;;;;;15.25;2.38;;;10.50;99.90;;;;;;5132489;27;20505;-58
2023/05/29 01:07:44;;;;;;;20.02;3.28;;;10.50;99.90;;;;;;5132316;27;20093;-58
2023/05/29 01:10:10;;;;;;;12.73;2.28;;;10.40;99.90;;;;;;5132556;27;20520;-58
2023/05/29 01:12:38;;;;;;;12.02;2.72;;;10.30;99.90;;;;;;5132033;27;20042;-58
2023/05/29 01:15:31;;;;;;;14.25;2.22;;;10.30;99.90;;;;;;5132278;27;20047;-58
2023/05/29 01:18:05;;;;;;;15.45;3.10;;;10.30;99.90;;;;;;5130921;27;20038;-59
2023/05/29 01:20:41;;;;;;;14.20;2.53;;;10.30;99.90;;;;;;5131788;27;20102;-58
2023/05/29 01:23:38;;;;;;;16.52;2.45;;;10.20;99.90;;;;;;5132030;27;20043;-59
2023/05/29 01:26:42;;;;;;;15.20;2.20;;;10.20;99.90;;;;;;5132592;27;20041;-59
2023/05/29 01:29:12;;;;;;;16.75;2.67;;;10.10;99.90;;;;;;5132162;27;20437;-59
2023/05/29 01:31:39;;;;;;;14.90;2.35;;;10.00;99.90;;;;;;5131796;27;20091;-58
2023/05/29 01:34:05;;;;;;;20.90;2.30;;;10.00;99.90;;;;;;5131647;27;20039;-59
2023/05/29 01:36:32;;;;;;;17.25;2.58;;;10.00;99.90;;;;;;5132298;27;20045;-58
2023/05/29 01:38:59;;;;;;;16.90;2.92;;;10.00;99.90;;;;;;5132162;27;20575;-58
2023/05/29 01:41:26;;;;;;;21.10;2.88;;;10.00;99.90;;;;;;5131977;27;20382;-59
2023/05/29 01:43:53;;;;;;;12.05;2.47;;;9.90;99.90;;;;;;5131928;27;20047;-58
2023/05/29 01:46:20;;;;;;;16.95;2.67;;;9.90;99.90;;;;;;5131712;27;20043;-58
2023/05/29 01:48:46;;;;;;;11.52;2.13;;;9.90;99.90;;;;;;5131055;27;20050;-59
2023/05/29 01:51:13;;;;;;;17.95;2.70;;;9.90;99.90;;;;;;5113006;27;20393;-59
2023/05/29 01:53:39;;;;;;;17.05;3.17;;;9.80;99.90;;;;;;5131243;27;20035;-59
2023/05/29 01:56:06;;;;;;;14.70;2.20;;;9.80;99.90;;;;;;5113424;27;20049;-58
2023/05/29 01:58:34;;;;;;;14.75;3.53;;;9.90;99.90;;;;;;5131639;27;20042;-59
2023/05/29 02:01:01;;;;;;;17.77;2.53;;;9.90;99.90;;;;;;5131484;27;20039;-57
2023/05/29 02:03:28;;;;;;;15.57;2.30;;;9.80;99.90;;;;;;5131173;27;20081;-59
2023/05/29 02:05:56;;;;;;;12.10;2.28;;;9.80;99.90;;;;;;5131083;27;20043;-59
2023/05/29 02:08:22;;;;;;;14.32;2.33;;;9.80;99.90;;;;;;5131633;27;20440;-59
2023/05/29 02:10:48;;;;;;;13.32;2.00;;;9.80;99.90;;;;;;5131293;27;20110;-59
2023/05/29 02:13:13;;;;;;;12.75;1.95;;;9.80;99.90;;;;;;5112882;27;20066;-59
2023/05/29 02:15:39;;;;;;;12.13;2.30;;;9.80;99.90;;;;;;5112592;27;20118;-58
2023/05/29 02:18:05;;;;;;;15.55;2.42;;;9.70;99.90;;;;;;5130610;27;20035;-58
2023/05/29 02:20:30;;;;;;;13.77;2.30;;;9.80;99.90;;;;;;5132095;27;20048;-58
2023/05/29 02:22:56;;;;;;;15.25;2.88;;;9.70;99.90;;;;;;5131918;27;20035;-57
2023/05/29 02:25:22;;;;;;;13.07;2.20;;;9.70;99.90;;;;;;5131047;27;20394;-58
2023/05/29 02:27:47;;;;;;;14.23;2.53;;;9.70;99.90;;;;;;5130884;27;20043;-58
2023/05/29 02:30:13;;;;;;;12.07;2.00;;;9.80;99.90;;;;;;5130973;27;20035;-59
2023/05/29 02:32:39;;;;;;;15.65;3.22;;;9.70;99.90;;;;;;5109099;27;20110;-59
2023/05/29 02:35:07;;;;;;;14.95;2.53;;;9.70;99.90;;;;;;5129724;27;20050;-58
2023/05/29 02:37:32;;;;;;;13.05;2.65;;;9.70;99.90;;;;;;5131189;27;20374;-58
2023/05/29 02:39:58;;;;;;;16.05;3.13;;;9.60;99.90;;;;;;5130720;28;20042;-58
2023/05/29 02:42:24;;;;;;;13.30;2.15;;;9.60;99.90;;;;;;5130816;28;20034;-58
2023/05/29 02:44:50;;;;;;;12.90;2.45;;;9.60;99.90;;;;;;5131015;28;20037;-59
2023/05/29 02:47:15;;;;;;;17.30;2.53;;;9.60;99.90;;;;;;5130019;28;20046;-59
2023/05/29 02:49:41;;;;;;;15.88;2.25;;;9.50;99.90;;;;;;5130415;28;20107;-59
2023/05/29 02:52:07;;;;;;;18.17;2.03;;;9.50;99.90;;;;;;5130907;28;20067;-58
2023/05/29 02:54:32;;;;;;;10.35;2.00;;;9.50;99.90;;;;;;5131185;28;20469;-58
2023/05/29 02:56:58;;;;;;;12.65;2.30;;;9.50;99.90;;;;;;5112798;28;20087;-59
2023/05/29 02:59:24;;;;;;;18.45;2.40;;;9.50;99.90;;;;;;5131311;28;20039;-58
2023/05/29 03:01:51;;;;;;;20.55;2.70;;;9.50;99.90;;;;;;5130932;28;20040;-58
2023/05/29 03:04:17;;;;;;;14.50;2.47;;;9.40;99.90;;;;;;5130775;28;20443;-57
2023/05/29 03:06:43;;;;;;;15.27;2.70;;;9.40;99.90;;;;;;5130193;28;20125;-56
2023/05/29 03:09:08;;;;;;;11.48;2.33;;;9.40;99.90;;;;;;5112216;28;20041;-59
2023/05/29 03:11:35;;;;;;;16.77;2.10;;;9.40;99.90;;;;;;5130715;28;20032;-58
2023/05/29 03:14:01;;;;;;;19.73;2.50;;;9.40;99.90;;;;;;5130184;28;20039;-57
2023/05/29 03:16:29;;;;;;;9.15;1.90;;;9.30;99.90;;;;;;5111823;28;20045;-58
2023/05/29 03:18:55;;;;;;;11.93;2.25;;;9.40;99.90;;;;;;5129869;28;20043;-59
2023/05/29 03:21:21;;;;;;;8.98;1.95;;;9.30;99.90;;;;;;5130290;28;20053;-59
2023/05/29 03:23:47;;;;;;;16.10;2.25;;;9.30;99.90;;;;;;5130618;28;20027;-58
2023/05/29 03:26:13;;;;;;;11.05;2.65;;;9.20;99.90;;;;;;5130079;28;20513;-58
2023/05/29 03:28:39;;;;;;;15.07;2.83;;;9.20;99.90;;;;;;5130439;28;20118;-58
2023/05/29 03:31:05;;;;;;;16.15;2.20;;;9.10;99.90;;;;;;5130643;28;20521;-57
2023/05/29 03:33:30;;;;;;;13.77;2.92;;;9.10;99.90;;;;;;5130238;28;20212;-60
2023/05/29 03:35:56;;;;;;;14.23;2.05;;;9.00;99.90;;;;;;5130278;28;20474;-58
2023/05/29 03:38:23;;;;;;;11.73;2.53;;;8.90;99.90;;;;;;5130422;28;20125;-59
2023/05/29 03:40:48;;;;;;;14.02;2.25;;;8.90;99.90;;;;;;5130484;28;20076;-58
2023/05/29 03:43:14;;;;;;;20.50;3.92;;;8.80;99.90;;;;;;5130398;28;20087;-57
2023/05/29 03:45:40;;;;;;;11.07;1.95;;;8.80;99.90;;;;;;5132187;27;20492;-58
2023/05/29 03:48:05;;;;;;;12.55;2.42;;;8.80;99.90;;;;;;5133287;27;20498;-59
2023/05/29 03:50:31;;;;;;;19.23;3.70;;;8.80;99.90;;;;;;5133957;27;20047;-59
2023/05/29 03:52:57;;;;;;;14.15;3.53;;;8.80;99.90;;;;;;5134478;27;20027;-58
2023/05/29 03:55:22;;;;;;;10.98;1.98;;;8.80;99.90;;;;;;5115735;27;20039;-58
2023/05/29 03:57:48;;;;;;;17.55;2.38;;;8.80;99.90;;;;;;5134012;27;20062;-58
2023/05/29 04:00:14;;;;;;;16.20;2.40;;;8.80;99.90;;;;;;5133633;27;20084;-58
2023/05/29 04:02:41;;;;;;;17.80;3.25;;;8.70;99.90;;;;;;5133674;27;20042;-57
2023/05/29 04:05:08;;;;;;;20.85;2.42;;;8.80;99.90;;;;;;5133715;27;20381;-59
2023/05/29 04:07:39;;;;;;;15.73;2.75;;;8.80;99.90;;;;;;5133967;27;20059;-58
2023/05/29 04:10:06;;;;;;;16.08;2.95;;;8.80;99.90;;;;;;5114896;27;20543;-60
2023/05/29 04:12:32;;;;;;;15.55;2.63;;;8.80;99.90;;;;;;5133531;27;20501;-59
2023/05/29 04:14:59;;;;;;;13.77;2.58;;;8.80;99.90;;;;;;5133520;27;20034;-58
2023/05/29 04:17:24;;;;;;;11.77;2.30;;;8.80;99.90;;;;;;5133395;27;20088;-58
2023/05/29 04:19:50;;;;;;;15.93;3.30;;;8.80;99.90;;;;;;5133331;27;20039;-59
2023/05/29 04:22:16;;;;;;;15.50;2.75;;;8.70;99.90;;;;;;5133593;27;20066;-58
2023/05/29 04:24:42;;;;;;;12.25;2.05;;;8.80;99.90;;;;;;5133058;27;20031;-58
2023/05/29 04:27:14;;;;;;;11.10;2.20;;;8.80;99.90;;;;;;5131968;27;20035;-59
2023/05/29 04:29:42;;;;;;;13.63;2.30;;;8.80;99.90;;;;;;5133243;27;20034;-58
2023/05/29 04:32:09;;;;;;;13.10;2.38;;;8.80;99.90;;;;;;5134065;27;20508;-57
2023/05/29 04:34:35;;;;;;;20.15;3.83;;;8.80;99.90;;;;;;5133185;27;20102;-58
2023/05/29 04:37:04;;;;;;;19.02;3.08;;;8.90;99.90;;;;;;5132791;27;20130;-58
2023/05/29 04:39:30;;;;;;;19.38;3.33;;;8.90;99.90;;;;;;5132869;27;20035;-58
2023/05/29 04:41:58;;;;;;;17.77;2.35;;;9.00;99.90;;;;;;5132866;27;20034;-59
2023/05/29 04:44:28;;;;;;;14.23;2.53;;;9.00;99.90;;;;;;5132802;27;20077;-58
2023/05/29 04:46:56;;;;;;;13.05;2.00;;;9.10;99.90;;;;;;5133227;27;20054;-58
2023/05/29 04:49:22;;;;;;;13.05;2.55;;;9.10;99.90;;;;;;5132061;27;20096;-59
2023/05/29 04:51:52;;;;;;;14.43;3.33;;;9.20;99.90;;;;;;5132607;27;20410;-58
2023/05/29 04:54:19;;;;;;;18.98;3.65;;;9.20;99.90;;;;;;5132897;27;20034;-60
2023/05/29 04:56:46;;;;;;;14.50;1.92;;;9.20;99.90;;;;;;5132313;27;20047;-59
2023/05/29 04:59:12;;;;;;;15.70;3.20;;;9.30;99.90;;;;;;5133058;27;20048;-59
2023/05/29 05:01:38;;;;;;;11.05;2.20;;;9.30;99.90;;;;;;5114055;27;20077;-59
2023/05/29 05:04:04;;;;;;;18.67;3.67;;;9.30;99.90;;;;;;5132257;27;20074;-58
2023/05/29 05:06:29;;;;;;;16.30;3.15;;;9.30;99.90;;;;;;5132312;27;20039;-58
2023/05/29 05:08:55;;;;;;;11.27;2.17;;;9.40;99.90;;;;;;5113672;27;20035;-59
2023/05/29 05:11:23;;;;;;;12.60;2.58;;;9.40;99.90;;;;;;5132836;27;20386;-58
2023/05/29 05:13:49;;;;;;;14.85;2.40;;;9.40;99.90;;;;;;5131734;27;20039;-58
2023/05/29 05:16:14;;;;;;;16.15;2.88;;;9.40;99.90;;;;;;5132236;27;20061;-59
2023/05/29 05:18:40;;;;;;;12.35;2.33;;;9.40;99.90;;;;;;5131484;27;20039;-59
2023/05/29 05:21:06;;;;;;;13.02;2.55;;;9.40;99.90;;;;;;5132341;27;20035;-59
2023/05/29 05:23:32;;;;;;;21.70;2.65;;;9.40;99.90;;;;;;5132421;27;20038;-59
2023/05/29 05:25:58;;;;;;;13.43;2.35;;;9.50;99.90;;;;;;5132880;27;20078;-59
2023/05/29 05:28:23;;;;;;;16.42;3.00;;;9.50;99.90;;;;;;5132561;27;20119;-59
2023/05/29 05:30:49;;;;;;;15.57;2.60;;;9.60;99.90;;;;;;5131875;27;20486;-58
2023/05/29 05:33:15;;;;;;;18.50;3.42;;;9.60;99.90;;;;;;5131911;27;20095;-57
2023/05/29 05:35:41;;;;;;;16.85;3.45;;;9.70;99.90;;;;;;5131661;27;20469;-60
2023/05/29 05:38:07;;;;;;;16.70;2.90;;;9.80;99.90;;;;;;5131959;27;20092;-59
2023/05/29 05:40:33;;;;;;;13.10;2.70;;;9.80;99.90;;;;;;5132179;27;20146;-59
2023/05/29 05:42:59;;;;;;;17.33;2.65;;;9.90;99.90;;;;;;5132045;27;20046;-59
2023/05/29 05:45:24;;;;;;;17.63;2.83;;;10.00;99.90;;;;;;5130806;27;20509;-59
2023/05/29 05:47:50;;;;;;;16.45;3.03;;;10.10;99.90;;;;;;5131086;27;20039;-58
2023/05/29 05:50:16;;;;;;;13.93;2.22;;;10.20;99.90;;;;;;5131893;27;20039;-59
2023/05/29 05:52:42;;;;;;;13.75;2.42;;;10.20;99.90;;;;;;5131436;27;20549;-59
2023/05/29 05:55:08;;;;;;;11.90;3.25;;;10.30;99.90;;;;;;5128366;27;20058;-58
2023/05/29 05:57:35;;;;;;;21.73;2.78;;;10.40;99.90;;;;;;5128171;27;20110;-58
2023/05/29 06:00:04;;;;;;;14.25;2.60;;;10.40;99.90;;;;;;5126712;27;20570;-59
2023/05/29 06:02:32;;;;;;;13.55;2.50;;;10.60;99.90;;;;;;5127527;27;20043;-59
2023/05/29 06:04:58;;;;;;;13.00;2.58;;;10.60;99.90;;;;;;5110426;27;20431;-58
2023/05/29 06:07:23;;;;;;;11.88;2.17;;;10.70;99.90;;;;;;5128029;27;20031;-58
2023/05/29 06:09:50;;;;;;;15.07;2.35;;;10.80;99.90;;;;;;5111551;27;20027;-56
2023/05/29 06:12:15;;;;;;;14.15;2.42;;;10.90;99.90;;;;;;5128055;27;20100;-58
2023/05/29 06:14:41;;;;;;;13.30;2.15;;;11.00;99.90;;;;;;5129269;27;20029;-58
2023/05/29 06:17:07;;;;;;;16.08;3.15;;;11.10;99.90;;;;;;5127199;27;20069;-58
2023/05/29 06:19:32;;;;;;;15.98;2.55;;;11.20;99.90;;;;;;5110122;27;20124;-58
2023/05/29 06:21:58;;;;;;;18.83;3.90;;;11.20;99.90;;;;;;5129102;27;20050;-58
2023/05/29 06:24:24;;;;;;;14.48;2.85;;;11.30;99.90;;;;;;5130051;27;20431;-59
2023/05/29 06:26:50;;;;;;;11.50;2.03;;;11.40;99.90;;;;;;5125149;27;20052;-59
2023/05/29 06:29:15;;;;;;;13.85;2.17;;;11.40;99.90;;;;;;5108428;27;20048;-58
2023/05/29 06:31:41;;;;;;;15.30;1.92;;;11.50;99.90;;;;;;5128211;27;20080;-59
2023/05/29 06:34:07;;;;;;;17.10;2.60;;;11.60;99.90;;;;;;5126562;27;20531;-60
2023/05/29 06:36:34;;;;;;;14.50;2.53;;;11.70;99.90;;;;;;5127504;27;20564;-58
2023/05/29 06:39:00;;;;;;;13.85;2.38;;;11.70;99.90;;;;;;5123252;27;20083;-59
2023/05/29 06:41:26;;;;;;;12.77;2.38;;;11.80;99.90;;;;;;5118292;28;20086;-59
2023/05/29 06:43:52;;;;;;;13.75;2.78;;;11.80;99.90;;;;;;5100194;28;20038;-59
2023/05/29 06:46:17;;;;;;;14.60;2.42;;;11.90;99.90;;;;;;5118491;28;20607;-58
2023/05/29 06:48:43;;;;;;;13.38;2.08;;;11.90;99.90;;;;;;5119035;28;20043;-58
2023/05/29 06:51:11;;;;;;;13.90;2.33;;;12.00;99.90;;;;;;5120228;28;20435;-59
2023/05/29 06:53:37;;;;;;;15.00;2.13;;;12.00;99.90;;;;;;5119780;28;20354;-58
2023/05/29 06:56:03;;;;;;;17.48;2.33;;;12.00;99.90;;;;;;5119891;28;20042;-59
2023/05/29 06:58:30;;;;;;;17.15;3.28;;;12.00;99.90;;;;;;5119066;28;20035;-59
2023/05/29 07:00:57;;;;;;;12.77;2.20;;;11.90;99.90;;;;;;5119653;28;20063;-59
2023/05/29 07:03:23;;;;;;;16.27;2.83;;;11.90;99.90;;;;;;5101263;28;20589;-60
2023/05/29 07:05:49;;;;;;;17.13;2.88;;;11.90;99.90;;;;;;5118358;27;20051;-58
2023/05/29 07:08:15;;;;;;;12.52;2.70;;;11.90;99.90;;;;;;5118546;28;20382;-59
2023/05/29 07:10:40;;;;;;;18.25;2.90;;;11.90;99.90;;;;;;5101487;28;20083;-59
2023/05/29 07:13:06;;;;;;;13.95;2.60;;;12.00;99.90;;;;;;5101510;28;20114;-61
2023/05/29 07:15:33;;;;;;;15.77;2.47;;;12.10;99.90;;;;;;5101987;28;20055;-58
2023/05/29 07:17:58;;;;;;;18.75;2.88;;;12.30;99.90;;;;;;5115194;27;20037;-58
2023/05/29 07:20:24;;;;;;;16.75;2.85;;;12.40;99.90;;;;;;5120903;27;20811;-58
2023/05/29 07:22:50;;;;;;;12.02;3.22;;;12.50;99.90;;;;;;5122760;27;20032;-58
2023/05/29 07:25:15;;;;;;;15.93;2.80;;;12.60;99.90;;;;;;5121842;27;20444;-59
2023/05/29 07:27:41;;;;;;;12.43;3.05;;;12.60;99.90;;;;;;5121283;27;20090;-59
2023/05/29 07:30:07;;;;;;;15.00;2.90;;;12.70;99.90;;;;;;5117800;27;20118;-59
2023/05/29 07:32:34;;;;;;;14.45;3.42;;;12.70;99.90;;;;;;5122141;27;20577;-57
2023/05/29 07:35:00;;;;;;;24.20;3.92;;;12.90;99.90;;;;;;5100142;27;20027;-59
2023/05/29 07:37:25;;;;;;;13.95;2.80;;;12.90;99.90;;;;;;5122852;27;20038;-60
2023/05/29 07:39:51;;;;;;;18.15;2.97;;;13.00;99.90;;;;;;5122442;27;20138;-58
2023/05/29 07:42:17;;;;;;;16.30;3.53;;;13.10;99.90;;;;;;5120693;27;20039;-58
2023/05/29 07:44:43;;;;;;;13.07;2.95;;;13.10;99.90;;;;;;5104541;27;20039;-59
2023/05/29 07:47:11;;;;;;;14.50;3.30;;;13.10;99.90;;;;;;5121386;27;20043;-59
2023/05/29 07:49:37;;;;;;;12.23;2.55;;;13.20;99.90;;;;;;5118289;27;20424;-58
2023/05/29 07:52:03;;;;;;;17.13;2.75;;;13.20;99.90;;;;;;5121449;27;20024;-58
2023/05/29 07:54:32;;;;;;;14.63;3.00;;;13.30;99.90;;;;;;5120679;27;20031;-59
2023/05/29 07:57:09;;;;;;;15.65;3.05;;;13.30;99.90;;;;;;5121417;27;20059;-57
2023/05/29 07:59:40;;;;;;;12.35;2.92;;;13.30;99.90;;;;;;5104341;27;20061;-58
2023/05/29 08:02:06;;;;;;;15.00;3.40;;;13.30;99.90;;;;;;5086927;27;20039;-58
2023/05/29 08:04:32;;;;;;;16.55;3.20;;;13.40;99.90;;;;;;5102917;27;20083;-59
2023/05/29 08:07:03;;;;;;;18.35;3.42;;;13.40;99.90;;;;;;5103301;27;20050;-57
2023/05/29 08:09:29;;;;;;;21.10;3.17;;;13.00;99.90;;;;;;5119677;27;20035;-57
2023/05/29 08:11:55;;;;;;;14.98;3.20;;;13.50;99.90;;;;;;5113968;27;20039;-58
2023/05/29 08:14:20;;;;;;;14.95;2.92;;;13.60;99.90;;;;;;5099335;27;20027;-60
2023/05/29 08:16:49;;;;;;;13.93;3.30;;;13.70;99.90;;;;;;5102700;27;20122;-58
2023/05/29 08:19:15;;;;;;;17.67;2.95;;;13.70;99.90;;;;;;5119423;27;20486;-59
2023/05/29 08:21:41;;;;;;;13.52;3.50;;;13.90;99.90;;;;;;5118611;27;20031;-58
2023/05/29 08:24:07;;;;;;;15.65;3.42;;;13.90;99.90;;;;;;5099061;27;20035;-59
2023/05/29 08:26:32;;;;;;;16.73;3.65;;;13.90;99.90;;;;;;5118883;27;20462;-59
2023/05/29 08:28:58;;;;;;;18.02;3.10;;;13.90;99.90;;;;;;5121918;27;20039;-59
2023/05/29 08:31:25;;;;;;;23.20;4.05;;;14.00;99.90;;;;;;5099464;27;20084;-59
2023/05/29 08:33:51;;;;;;;13.60;2.97;;;14.00;99.90;;;;;;5117524;27;20465;-59
2023/05/29 08:36:17;;;;;;;16.10;3.17;;;14.00;99.90;;;;;;5098966;27;20114;-59
2023/05/29 08:38:43;;;;;;;18.05;3.50;;;14.00;99.90;;;;;;5117716;27;20036;-58
2023/05/29 08:41:14;;;;;;;15.48;4.18;;;14.00;99.90;;;;;;5115611;27;20514;-59
2023/05/29 08:43:42;;;;;;;20.67;3.85;;;14.10;99.90;;;;;;5111678;27;20031;-59
2023/05/29 08:46:08;;;;;;;14.25;3.40;;;14.20;99.90;;;;;;5120132;27;20078;-59
2023/05/29 08:48:39;;;;;;;13.57;3.22;;;14.20;99.90;;;;;;5116696;27;20456;-58
2023/05/29 08:51:07;;;;;;;17.00;3.67;;;14.20;99.90;;;;;;5119863;27;20474;-58
2023/05/29 08:53:33;;;;;;;17.02;3.33;;;14.30;99.90;;;;;;5114624;27;20672;-58
2023/05/29 08:56:01;;;;;;;14.27;3.28;;;14.40;99.90;;;;;;5116079;27;20525;-59
2023/05/29 08:58:27;;;;;;;15.63;4.03;;;14.50;99.90;;;;;;5116516;27;20538;-59
2023/05/29 09:00:52;;;;;;;15.07;2.90;;;14.70;99.90;;;;;;5117876;27;20478;-59
2023/05/29 09:03:20;;;;;;;17.80;3.42;;;14.70;99.90;;;;;;5119839;27;20027;-58
2023/05/29 09:05:46;;;;;;;15.25;3.90;;;14.70;99.90;;;;;;5114209;27;20047;-59
2023/05/29 09:08:12;;;;;;;16.08;2.88;;;14.80;99.90;;;;;;5117580;27;20028;-59
2023/05/29 09:10:43;;;;;;;16.15;3.28;;;14.80;99.90;;;;;;5093379;27;20074;-59
2023/05/29 09:13:09;;;;;;;14.88;3.05;;;15.00;99.90;;;;;;5114880;27;20385;-58
2023/05/29 09:15:35;;;;;;;13.18;3.22;;;15.10;99.90;;;;;;5099427;27;20042;-58
2023/05/29 09:18:01;;;;;;;18.77;4.25;;;15.10;99.90;;;;;;5090467;27;20038;-58
2023/05/29 09:20:27;;;;;;;20.65;3.80;;;15.20;99.90;;;;;;5116880;27;20122;-59
2023/05/29 09:22:57;;;;;;;15.20;3.20;;;15.30;99.90;;;;;;5116136;27;20085;-58
2023/05/29 09:25:29;;;;;;;18.05;3.55;;;15.40;99.90;;;;;;5082176;27;20035;-57
2023/05/29 09:27:55;;;;;;;14.98;3.10;;;15.40;99.90;;;;;;5113027;27;20367;-58
2023/05/29 09:30:33;;;;;;;18.90;3.95;;;15.40;99.90;;;;;;5114497;27;20039;-58
2023/05/29 09:33:00;;;;;;;17.50;3.20;;;15.50;99.90;;;;;;5118164;27;20027;-59
2023/05/29 09:35:33;;;;;;;13.20;3.80;;;15.60;99.90;;;;;;5116663;27;20039;-57
2023/05/29 09:37:59;;;;;;;15.77;3.65;;;15.60;99.90;;;;;;5115806;27;20027;-59
2023/05/29 09:40:25;;;;;;;16.80;3.97;;;15.70;99.90;;;;;;5116228;27;20053;-59
2023/05/29 09:42:50;;;;;;;14.13;3.63;;;15.80;99.90;;;;;;5115419;27;20050;-59
2023/05/29 09:45:21;;;;;;;19.15;3.70;;;15.90;99.90;;;;;;5116339;27;20035;-59
2023/05/29 09:47:48;;;;;;;15.18;3.83;;;16.10;99.90;;;;;;5116160;27;20530;-59
2023/05/29 09:50:25;;;;;;;14.88;4.00;;;16.10;99.90;;;;;;5111271;27;20035;-58
2023/05/29 09:52:52;;;;;;;13.98;3.42;;;16.10;99.70;;;;;;5113691;27;20067;-59
2023/05/29 09:55:21;;;;;;;15.95;3.85;;;16.10;99.80;;;;;;5114061;27;20032;-59
2023/05/29 09:57:48;;;;;;;19.15;3.40;;;16.20;99.80;;;;;;5095018;27;20066;-59
2023/05/29 10:00:17;;;;;;;17.33;3.60;;;16.30;99.90;;;;;;5113721;27;20496;-60
2023/05/29 10:02:43;;;;;;;17.23;3.47;;;16.50;99.90;;;;;;5094584;27;20442;-58
2023/05/29 10:05:10;;;;;;;14.98;3.80;;;16.50;99.90;;;;;;5115713;27;20039;-59
2023/05/29 10:07:38;;;;;;;13.32;3.28;;;16.50;99.90;;;;;;5098466;27;20084;-60
2023/05/29 10:10:07;;;;;;;14.45;4.05;;;16.60;99.90;;;;;;5114992;27;22633;-60
2023/05/29 10:12:38;;;;;;;16.25;4.20;;;16.70;99.90;;;;;;5115033;27;20043;-59
2023/05/29 10:15:11;;;;;;;15.15;4.25;;;16.70;99.90;;;;;;5107854;27;20031;-59
2023/05/29 10:17:38;;;;;;;17.88;3.92;;;16.70;99.90;;;;;;5112671;27;20031;-58
2023/05/29 10:20:09;;;;;;;14.05;3.45;;;16.70;99.60;;;;;;5115748;27;20592;-59
2023/05/29 10:22:42;;;;;;;19.73;4.03;;;16.60;99.70;;;;;;5116492;27;20072;-59
2023/05/29 10:25:10;;;;;;;16.90;3.50;;;16.70;99.60;;;;;;5117583;27;20443;-58
2023/05/29 10:27:37;;;;;;;12.15;3.60;;;16.80;99.50;;;;;;5113766;27;20035;-59
2023/05/29 10:30:11;;;;;;;14.73;3.75;;;16.90;99.10;;;;;;5099026;27;20094;-59
2023/05/29 10:32:59;;;;;;;12.23;3.20;;;16.90;99.00;;;;;;5117931;27;20038;-59
2023/05/29 10:35:47;;;;;;;12.20;3.50;;;17.00;99.00;;;;;;5117229;27;20039;-59
2023/05/29 10:38:18;;;;;;;16.35;3.40;;;17.10;98.60;;;;;;5118472;27;20031;-60
2023/05/29 10:40:44;;;;;;;14.75;3.65;;;17.10;98.20;;;;;;5116869;27;20035;-59
2023/05/29 10:43:34;;;;;;;16.13;4.47;;;17.20;98.10;;;;;;5116835;28;20042;-58
2023/05/29 10:46:01;;;;;;;13.80;3.65;;;17.20;97.80;;;;;;5096213;28;20505;-57
2023/05/29 10:48:30;;;;;;;14.02;3.60;;;17.20;97.70;;;;;;5116490;28;20047;-58
2023/05/29 10:50:56;;;;;;;13.40;3.17;;;17.20;97.70;;;;;;5115525;28;20406;-60
2023/05/29 10:53:30;;;;;;;17.17;3.50;;;17.20;97.70;;;;;;5115658;28;20412;-60
2023/05/29 10:55:56;;;;;;;;;;;17.30;98.30;;;;;;5116708;27;20064;-58
2023/05/29 10:58:24;;;;;;;11.23;3.40;;;17.50;98.30;;;;;;5103781;27;19911;-59
2023/05/29 11:00:53;;;;;;;16.30;3.97;;;17.60;98.30;;;;;;5121081;27;20540;-59
2023/05/29 11:03:30;;;;;;;12.75;3.65;;;17.60;98.00;;;;;;5121642;27;20039;-59
2023/05/29 11:06:10;;;;;;;10.27;3.10;;;17.50;97.90;;;;;;5119729;27;20059;-59
2023/05/29 11:08:47;;;;;;;16.33;3.85;;;17.50;97.40;;;;;;5118058;27;20031;-58
2023/05/29 11:11:29;;;;;;;14.52;3.25;;;17.50;97.40;;;;;;5122603;27;20062;-59
2023/05/29 11:13:56;;;;;;;17.67;3.80;;;17.50;97.70;;;;;;5121621;27;20276;-59
2023/05/29 11:16:30;;;;;;;15.90;3.40;;;17.60;98.00;;;;;;5121573;27;20134;-58
2023/05/29 11:19:09;;;;;;;19.42;4.07;;;17.70;98.00;;;;;;5123078;27;20063;-58
2023/05/29 11:22:13;;;;;;;13.60;2.83;;;17.80;97.70;;;;;;5103670;27;20031;-60
2023/05/29 11:24:40;;;;;;;13.68;3.25;;;17.80;97.40;;;;;;5040997;28;20041;-59
2023/05/29 11:27:07;;;;;;;14.65;3.42;;;17.90;97.60;;;;;;5105672;27;20512;-59
2023/05/29 11:29:35;;;;;;;13.07;2.63;;;18.00;97.60;;;;;;5104336;27;20068;-60
2023/05/29 11:32:05;;;;;;;11.90;3.10;;;18.10;97.70;;;;;;5121811;27;20043;-58
2023/05/29 11:34:32;;;;;;;16.55;3.88;;;18.30;97.60;;;;;;5122748;27;20058;-58
2023/05/29 11:37:00;;;;;;;13.10;3.08;;;18.30;97.40;;;;;;5119749;27;20036;-59
2023/05/29 11:39:26;;;;;;;15.95;3.35;;;18.40;97.30;;;;;;5104924;27;22646;-59
2023/05/29 11:41:52;;;;;;;14.60;3.00;;;18.40;97.40;;;;;;5103847;27;20031;-59
2023/05/29 11:44:18;;;;;;;12.68;3.28;;;18.50;97.70;;;;;;5122323;27;20114;-59
2023/05/29 11:46:44;;;;;;;16.92;3.40;;;18.70;97.50;;;;;;5120138;27;20281;-58
2023/05/29 11:49:10;;;;;;;13.60;3.15;;;18.90;97.10;;;;;;5115704;27;20050;-59
2023/05/29 11:51:36;;;;;;;15.23;3.05;;;18.90;97.00;;;;;;5120139;27;20125;-59
2023/05/29 11:54:02;;;;;;;14.40;3.05;;;19.00;96.90;;;;;;5120854;27;20513;-59
2023/05/29 11:56:29;;;;;;;11.82;3.25;;;19.00;96.50;;;;;;5115397;27;20039;-55
2023/05/29 11:58:57;;;;;;;14.90;2.90;;;19.10;96.60;;;;;;5119316;27;20071;-57
2023/05/29 12:01:28;;;;;;;15.15;3.83;;;19.30;96.80;;;;;;5117608;27;20035;-55
2023/05/29 12:03:53;;;;;;;10.85;3.25;;;19.50;96.00;;;;;;5097371;27;20043;-58
2023/05/29 12:06:37;;;;;;;14.07;3.08;;;19.30;95.50;;;;;;5117403;27;20047;-56
2023/05/29 12:09:04;;;;;;;15.63;3.63;;;19.20;95.60;;;;;;5120431;27;20110;-55
2023/05/29 12:11:30;;;;;;;13.02;3.03;;;19.20;95.60;;;;;;5102770;27;20036;-57
2023/05/29 12:14:00;;;;;;;13.80;2.67;;;19.20;95.20;;;;;;5117597;27;20103;-56
2023/05/29 12:16:27;;;;;;;15.32;2.97;;;19.20;95.30;;;;;;5119394;27;20043;-57
2023/05/29 12:18:53;;;;;;;14.25;3.30;;;19.20;95.60;;;;;;5102163;27;20036;-59
2023/05/29 12:21:21;;;;;;;14.27;3.42;;;19.20;95.20;;;;;;5121878;27;20091;-59
2023/05/29 12:23:46;;;;;;;13.02;3.10;;;19.30;95.50;;;;;;5120907;27;20058;-59
2023/05/29 12:26:12;;;;;;;15.48;3.03;;;19.30;95.40;;;;;;5119548;27;20035;-59
2023/05/29 12:28:48;;;;;;;13.40;3.00;;;19.40;95.70;;;;;;5121688;27;20030;-59
2023/05/29 12:31:14;;;;;;;13.02;3.15;;;19.50;94.80;;;;;;5104783;27;20035;-60
2023/05/29 12:33:43;;;;;;;12.30;3.10;;;19.40;94.80;;;;;;5129708;27;20031;-59
2023/05/29 12:36:12;;;;;;;12.40;2.80;;;19.60;94.80;;;;;;5130788;27;20474;-58
2023/05/29 12:38:51;;;;;;;14.63;3.00;;;19.70;95.20;;;;;;5131122;27;20035;-58
2023/05/29 12:41:23;;;;;;;16.98;3.50;;;19.90;94.10;;;;;;5132552;27;20374;-58
2023/05/29 12:43:49;;;;;;;12.93;2.78;;;19.90;94.30;;;;;;5132929;27;20039;-58